Time;durP1;ratioP1;P1;durP2;ratioP2;P2;SDS_P1;SDS_P2;PMS_P1;PMS_P2;Temp;Humidity;BMP_temperature;BMP_pressure;BME280_temperature;BME280_humidity;BME280_pressure;Samples;Min_cycle;Max_cycle;Signal;HPM_P1;HPM_P2
2024/03/08 00:00:43;;;;;;;22.10;15.10;;;;;;;10.25;43.93;102251.59;107114;1259;25353;-56
2024/03/08 00:03:10;;;;;;;18.80;14.20;;;;;;;10.25;43.78;102251.43;107029;1258;25402;-57
2024/03/08 00:05:38;;;;;;;22.00;15.60;;;;;;;10.25;43.68;102251.94;106819;1259;25322;-57
2024/03/08 00:08:09;;;;;;;27.50;16.90;;;;;;;10.25;43.82;102246.23;106905;1257;22584;-56
2024/03/08 00:10:38;;;;;;;24.20;16.10;;;;;;;10.23;43.86;102244.48;106037;1269;1003080;-56
2024/03/08 00:13:06;;;;;;;23.30;15.20;;;;;;;10.22;44.01;102241.19;106688;1270;25312;-56
2024/03/08 00:15:34;;;;;;;20.40;14.90;;;;;;;10.21;43.97;102243.95;106676;1263;25572;-58
2024/03/08 00:18:01;;;;;;;22.80;16.10;;;;;;;10.18;44.01;102240.48;105947;1262;1003638;-58
2024/03/08 00:20:29;;;;;;;19.20;14.50;;;;;;;10.18;44.16;102233.37;106762;1266;25471;-59
2024/03/08 00:22:57;;;;;;;23.20;14.10;;;;;;;10.17;44.05;102234.23;106615;1259;25380;-56
2024/03/08 00:25:24;;;;;;;22.60;13.80;;;;;;;10.17;44.22;102235.10;106474;1269;23884;-57
2024/03/08 00:27:55;;;;;;;19.80;14.90;;;;;;;10.20;44.07;102236.33;106630;1268;24242;-57
2024/03/08 00:30:23;;;;;;;19.10;14.80;;;;;;;10.21;43.95;102231.98;106688;1273;25411;-59
2024/03/08 00:32:50;;;;;;;19.90;14.60;;;;;;;10.21;43.93;102232.34;106926;1259;25306;-59
2024/03/08 00:35:18;;;;;;;20.50;14.10;;;;;;;10.22;43.91;102231.98;106819;1269;25385;-60
2024/03/08 00:37:47;;;;;;;21.60;14.40;;;;;;;10.23;43.96;102230.61;106983;1259;24228;-57
2024/03/08 00:40:14;;;;;;;23.50;14.40;;;;;;;10.24;43.88;102232.17;107019;1259;25312;-58
2024/03/08 00:42:43;;;;;;;21.30;15.50;;;;;;;10.24;43.91;102229.75;107143;1266;25406;-58
2024/03/08 00:45:11;;;;;;;20.10;15.20;;;;;;;10.23;43.88;102229.73;107193;1257;25333;-57
2024/03/08 00:47:38;;;;;;;19.60;14.80;;;;;;;10.23;43.79;102229.92;106656;1254;443872;-57
2024/03/08 00:50:08;;;;;;;17.90;13.80;;;;;;;10.23;43.59;102231.48;107191;1257;25408;-57
2024/03/08 00:52:36;;;;;;;17.10;13.40;;;;;;;10.22;43.49;102231.65;106478;1256;1002867;-57
2024/03/08 00:55:04;;;;;;;21.00;14.40;;;;;;;10.22;43.56;102233.04;107061;1257;25357;-57
2024/03/08 00:57:31;;;;;;;16.20;13.60;;;;;;;10.23;43.39;102233.20;107157;1256;25405;-57
2024/03/08 00:59:58;;;;;;;20.70;13.90;;;;;;;10.22;43.34;102234.60;107025;1257;25318;-57
2024/03/08 01:02:25;;;;;;;21.30;15.20;;;;;;;10.19;43.07;102234.06;107133;1258;25474;-57
2024/03/08 01:04:53;;;;;;;20.80;13.50;;;;;;;10.18;42.97;102236.84;107102;1256;25435;-58
2024/03/08 01:07:20;;;;;;;19.00;14.70;;;;;;;10.15;42.75;102236.83;107046;1257;25402;-57
2024/03/08 01:09:47;;;;;;;24.90;14.50;;;;;;;10.12;42.97;102233.35;106313;1256;1003037;-57
2024/03/08 01:12:14;;;;;;;22.30;14.70;;;;;;;10.11;43.04;102235.94;107128;1266;25357;-57
2024/03/08 01:14:41;;;;;;;22.40;14.00;;;;;;;10.09;43.12;102233.65;106831;1268;25468;-58
2024/03/08 01:17:09;;;;;;;19.60;13.70;;;;;;;10.06;42.88;102232.41;106332;1255;1002974;-57
2024/03/08 01:19:36;;;;;;;22.20;13.70;;;;;;;10.02;42.82;102228.76;107124;1257;25440;-57
2024/03/08 01:22:03;;;;;;;19.60;13.50;;;;;;;9.99;42.77;102229.96;107069;1256;25357;-56
2024/03/08 01:24:31;;;;;;;22.80;14.50;;;;;;;9.96;42.86;102230.30;107146;1259;25350;-56
2024/03/08 01:26:57;;;;;;;21.10;14.10;;;;;;;9.92;42.87;102232.02;107124;1265;25329;-58
2024/03/08 01:29:24;;;;;;;22.20;15.00;;;;;;;9.87;42.88;102234.07;106780;1256;25395;-56
2024/03/08 01:31:52;;;;;;;19.70;14.90;;;;;;;9.83;42.91;102236.65;106843;1273;25326;-56
2024/03/08 01:34:19;;;;;;;21.20;14.60;;;;;;;9.80;43.16;102239.24;107092;1257;25341;-57
2024/03/08 01:36:46;;;;;;;19.60;14.40;;;;;;;9.76;43.07;102237.84;106811;1260;23898;-57
2024/03/08 01:39:13;;;;;;;17.00;14.00;;;;;;;9.72;42.99;102234.88;107124;1257;25330;-57
2024/03/08 01:41:40;;;;;;;18.30;13.60;;;;;;;9.69;42.87;102236.08;106939;1267;25406;-58
2024/03/08 01:44:09;;;;;;;16.30;12.80;;;;;;;9.67;42.99;102233.98;106802;1266;25318;-58
2024/03/08 01:46:36;;;;;;;19.90;14.60;;;;;;;9.65;42.94;102233.79;107129;1265;25360;-57
2024/03/08 01:49:03;;;;;;;20.90;14.50;;;;;;;9.63;42.64;102230.48;107121;1265;25344;-57
2024/03/08 01:51:30;;;;;;;19.00;14.40;;;;;;;9.61;42.60;102229.77;107160;1260;25455;-56
2024/03/08 01:53:57;;;;;;;20.60;14.30;;;;;;;9.58;42.66;102233.23;107088;1254;25318;-57
2024/03/08 01:56:25;;;;;;;19.10;13.90;;;;;;;9.56;42.51;102238.59;106321;1265;1003925;-57
2024/03/08 01:58:52;;;;;;;20.00;13.90;;;;;;;9.53;42.60;102239.10;106861;1266;22538;-57
2024/03/08 02:01:19;;;;;;;19.90;14.10;;;;;;;9.49;42.68;102236.48;106197;1273;1003740;-57
2024/03/08 02:03:47;;;;;;;18.20;13.20;;;;;;;9.46;42.53;102234.36;107143;1256;25348;-57
2024/03/08 02:06:15;;;;;;;20.90;14.10;;;;;;;9.42;42.60;102234.86;107159;1259;25830;-57
2024/03/08 02:08:46;;;;;;;18.50;13.70;;;;;;;9.40;42.59;102232.94;106896;1268;25347;-57
2024/03/08 02:11:14;;;;;;;18.40;13.60;;;;;;;9.39;42.68;102234.33;107154;1270;25268;-57
2024/03/08 02:13:41;;;;;;;18.70;13.90;;;;;;;9.39;42.66;102237.79;107117;1266;25341;-57
2024/03/08 02:16:08;;;;;;;18.90;13.30;;;;;;;9.38;42.74;102239.87;107084;1259;25337;-57
2024/03/08 02:18:36;;;;;;;18.70;13.90;;;;;;;9.37;42.78;102239.16;107092;1259;25445;-57
2024/03/08 02:21:05;;;;;;;18.30;13.20;;;;;;;9.35;42.79;102235.69;107178;1263;22531;-58
2024/03/08 02:23:32;;;;;;;20.00;14.00;;;;;;;9.31;42.85;102235.31;107046;1262;22574;-57
2024/03/08 02:25:59;;;;;;;20.10;13.70;;;;;;;9.28;43.04;102237.04;107107;1269;23897;-57
2024/03/08 02:28:26;;;;;;;19.80;13.70;;;;;;;9.28;43.15;102229.23;106412;1257;1003746;-57
2024/03/08 02:30:55;;;;;;;17.80;13.50;;;;;;;9.27;43.22;102229.05;106803;1261;25398;-57
2024/03/08 02:33:23;;;;;;;19.40;13.30;;;;;;;9.25;43.18;102230.42;106749;1264;25341;-57
2024/03/08 02:35:53;;;;;;;18.70;13.50;;;;;;;9.24;43.13;102223.49;107032;1263;25346;-57
2024/03/08 02:38:21;;;;;;;20.00;15.10;;;;;;;9.23;43.21;102223.65;106416;1255;1003573;-57
2024/03/08 02:40:49;;;;;;;19.70;13.90;;;;;;;9.21;43.41;102225.02;106856;1274;25332;-57
2024/03/08 02:43:17;;;;;;;22.40;14.10;;;;;;;9.19;43.41;102225.01;107073;1256;24252;-57
2024/03/08 02:45:47;;;;;;;18.60;13.70;;;;;;;9.17;43.44;102223.61;107157;1257;22642;-57
2024/03/08 02:48:14;;;;;;;19.70;15.10;;;;;;;9.16;43.61;102227.40;107113;1258;25357;-57
2024/03/08 02:50:44;;;;;;;24.00;14.60;;;;;;;9.12;43.45;102223.91;106056;1274;1003175;-57
2024/03/08 02:53:11;;;;;;;22.30;15.00;;;;;;;9.09;43.63;102229.77;107135;1266;24396;-57
2024/03/08 02:55:40;;;;;;;20.00;14.30;;;;;;;9.07;43.79;102228.55;107152;1263;22531;-57
2024/03/08 02:58:10;;;;;;;18.70;14.20;;;;;;;9.04;43.90;102227.32;107082;1265;25315;-57
2024/03/08 03:00:38;;;;;;;19.20;13.60;;;;;;;9.03;44.00;102225.41;107139;1259;25293;-57
2024/03/08 03:03:06;;;;;;;21.40;14.30;;;;;;;9.01;44.05;102224.86;107159;1266;25470;-57
2024/03/08 03:05:33;;;;;;;21.20;14.30;;;;;;;9.01;43.94;102225.55;106834;1263;25315;-57
2024/03/08 03:08:00;;;;;;;20.60;13.90;;;;;;;8.99;44.07;102225.37;106370;1266;1003241;-57
2024/03/08 03:10:28;;;;;;;21.00;14.60;;;;;;;9.00;44.13;102225.73;107109;1266;25330;-56
2024/03/08 03:12:55;;;;;;;19.50;14.00;;;;;;;9.00;44.19;102228.66;107083;1260;25324;-58
2024/03/08 03:15:22;;;;;;;18.80;13.00;;;;;;;9.00;44.23;102231.44;107154;1259;25317;-58
2024/03/08 03:17:52;;;;;;;20.10;13.70;;;;;;;8.99;44.30;102235.91;106892;1267;25324;-57
2024/03/08 03:20:32;;;;;;;20.90;14.40;;;;;;;8.98;44.39;102235.73;106048;1261;1002848;-57
2024/03/08 03:23:02;;;;;;;22.80;14.90;;;;;;;8.98;44.45;102230.90;107109;1266;25434;-57
2024/03/08 03:25:34;;;;;;;24.80;14.60;;;;;;;8.97;44.45;102226.40;106041;1270;1002953;-57
2024/03/08 03:28:01;;;;;;;20.30;13.40;;;;;;;8.96;44.57;102225.34;107099;1257;25474;-57
2024/03/08 03:30:32;;;;;;;22.10;13.80;;;;;;;8.97;44.57;102224.83;107075;1257;25220;-57
2024/03/08 03:33:00;;;;;;;19.60;13.30;;;;;;;8.96;44.48;102223.61;107180;1259;25427;-57
2024/03/08 03:35:29;;;;;;;19.70;15.10;;;;;;;8.95;44.42;102225.86;106128;1269;1002923;-57
2024/03/08 03:38:06;;;;;;;21.60;14.20;;;;;;;8.94;44.48;102225.16;107133;1256;25340;-57
2024/03/08 03:40:34;;;;;;;17.20;13.30;;;;;;;8.94;44.64;102230.17;107087;1257;25312;-57
2024/03/08 03:43:01;;;;;;;18.90;12.90;;;;;;;8.94;44.54;102228.45;107129;1266;25776;-57
2024/03/08 03:45:28;;;;;;;18.60;13.90;;;;;;;8.94;44.38;102233.46;106077;1269;1002991;-57
2024/03/08 03:47:56;;;;;;;20.40;14.00;;;;;;;8.94;44.53;102233.46;107120;1263;25337;-57
2024/03/08 03:50:23;;;;;;;19.40;13.60;;;;;;;8.96;44.63;102233.48;107117;1257;25349;-57
2024/03/08 03:52:50;;;;;;;18.50;14.30;;;;;;;8.98;44.36;102238.16;106915;1260;25324;-57
2024/03/08 03:55:17;;;;;;;17.70;14.00;;;;;;;8.99;44.59;102235.23;106906;1270;25331;-58
2024/03/08 03:57:45;;;;;;;19.30;13.40;;;;;;;9.02;44.57;102235.42;106849;1269;22524;-57
2024/03/08 04:00:14;;;;;;;18.80;14.00;;;;;;;9.03;44.52;102236.65;106349;1266;1002859;-57
2024/03/08 04:02:42;;;;;;;20.80;14.30;;;;;;;9.05;44.16;102239.27;106891;1262;22554;-57
2024/03/08 04:05:10;;;;;;;19.60;14.00;;;;;;;9.03;44.29;102241.15;106913;1264;25404;-57
2024/03/08 04:07:37;;;;;;;18.40;14.40;;;;;;;9.01;44.39;102242.01;106832;1263;25325;-58
2024/03/08 04:10:08;;;;;;;23.70;15.60;;;;;;;8.98;44.39;102243.55;107079;1256;22778;-57
2024/03/08 04:12:35;;;;;;;20.40;14.30;;;;;;;8.95;44.33;102242.48;106902;1266;24233;-57
2024/03/08 04:15:04;;;;;;;19.60;14.70;;;;;;;8.93;44.45;102250.59;106336;1257;1002747;-57
2024/03/08 04:17:32;;;;;;;19.50;14.40;;;;;;;8.90;44.52;102250.05;107146;1257;25315;-57
2024/03/08 04:19:59;;;;;;;22.80;14.90;;;;;;;8.87;44.65;102245.36;107110;1256;25464;-57
2024/03/08 04:22:28;;;;;;;18.00;14.30;;;;;;;8.87;44.84;102244.65;106381;1266;1003176;-57
2024/03/08 04:24:56;;;;;;;20.80;14.60;;;;;;;8.87;44.96;102238.26;106909;1267;25306;-56
2024/03/08 04:27:23;;;;;;;21.20;14.10;;;;;;;8.89;44.97;102239.48;106056;1268;1003212;-57
2024/03/08 04:29:50;;;;;;;23.80;14.50;;;;;;;8.92;44.92;102238.46;107088;1267;25382;-57
2024/03/08 04:32:17;;;;;;;18.70;13.50;;;;;;;8.92;44.82;102237.26;107096;1267;25322;-57
2024/03/08 04:34:44;;;;;;;24.00;14.50;;;;;;;8.92;44.96;102241.06;106195;1268;1003477;-57
2024/03/08 04:37:13;;;;;;;20.10;14.60;;;;;;;8.94;45.10;102235.20;106350;1253;1003202;-56
2024/03/08 04:39:41;;;;;;;23.80;15.80;;;;;;;8.97;45.27;102241.80;106345;1258;1003416;-57
2024/03/08 04:42:10;;;;;;;22.10;15.70;;;;;;;9.01;45.12;102239.58;107132;1267;25325;-57
2024/03/08 04:44:38;;;;;;;21.50;16.50;;;;;;;9.06;44.90;102231.48;106231;1263;1003276;-57
2024/03/08 04:47:08;;;;;;;26.20;15.80;;;;;;;9.10;44.67;102223.72;107047;1267;25459;-57
2024/03/08 04:49:35;;;;;;;24.20;16.40;;;;;;;9.18;44.61;102218.59;107062;1266;23889;-57
2024/03/08 04:52:03;;;;;;;23.70;16.30;;;;;;;9.22;44.59;102217.58;106395;1261;1003082;-58
2024/03/08 04:54:30;;;;;;;24.90;16.50;;;;;;;9.25;44.59;102217.09;107163;1266;25340;-56
2024/03/08 04:56:57;;;;;;;23.10;16.10;;;;;;;9.26;44.56;102221.24;106800;1274;25345;-58
2024/03/08 04:59:25;;;;;;;23.30;15.70;;;;;;;9.23;44.71;102223.31;106798;1270;25408;-58
2024/03/08 05:01:52;;;;;;;21.50;15.20;;;;;;;9.20;44.83;102222.23;106925;1256;24230;-57
2024/03/08 05:04:19;;;;;;;19.30;14.60;;;;;;;9.17;44.92;102224.13;106866;1267;25350;-58
2024/03/08 05:06:46;;;;;;;20.80;15.30;;;;;;;9.17;45.01;102222.39;106941;1257;25343;-57
2024/03/08 05:09:16;;;;;;;21.90;16.70;;;;;;;9.18;44.92;102225.86;106878;1257;25344;-59
2024/03/08 05:11:50;;;;;;;23.70;16.40;;;;;;;9.18;44.93;102225.69;106797;1257;25337;-59
2024/03/08 05:14:19;;;;;;;23.10;16.90;;;;;;;9.23;45.16;102239.41;106567;1263;25220;-58
2024/03/08 05:16:48;;;;;;;22.70;16.60;;;;;;;9.25;45.19;102271.45;106576;1273;25407;-58
2024/03/08 05:19:19;;;;;;;22.80;16.40;;;;;;;9.26;45.10;102285.49;107061;1257;24347;-56
2024/03/08 05:21:47;;;;;;;18.50;15.00;;;;;;;9.27;44.89;102293.98;107036;1257;25294;-57
2024/03/08 05:24:15;;;;;;;21.80;15.10;;;;;;;9.25;44.66;102277.00;106916;1254;25380;-57
2024/03/08 05:26:42;;;;;;;21.40;15.10;;;;;;;9.28;44.84;102258.66;106959;1266;25325;-57
2024/03/08 05:29:10;;;;;;;23.50;15.70;;;;;;;9.29;44.78;102262.33;106885;1266;25420;-57
2024/03/08 05:32:03;;;;;;;23.90;16.20;;;;;;;9.28;44.47;102279.11;106839;1269;25568;-56
2024/03/08 05:34:31;;;;;;;22.00;16.40;;;;;;;9.24;44.65;102287.91;106390;1278;25340;-58
2024/03/08 05:36:58;;;;;;;21.70;15.40;;;;;;;9.21;44.66;102289.44;105534;1279;1003728;-58
2024/03/08 05:39:25;;;;;;;23.50;16.00;;;;;;;9.18;44.96;102294.77;106268;1259;22533;-58
2024/03/08 05:41:52;;;;;;;23.90;16.10;;;;;;;9.16;45.17;102297.69;106087;1277;25477;-58
2024/03/08 05:44:19;;;;;;;19.70;15.10;;;;;;;9.13;45.07;102290.05;106061;1270;24224;-58
2024/03/08 05:46:46;;;;;;;22.50;16.00;;;;;;;9.10;45.01;102290.56;106298;1272;25491;-58
2024/03/08 05:49:14;;;;;;;22.00;16.80;;;;;;;9.07;44.68;102295.54;106237;1267;25409;-57
2024/03/08 05:51:42;;;;;;;19.50;15.40;;;;;;;9.06;44.52;102291.03;106304;1273;25464;-59
2024/03/08 05:54:10;;;;;;;20.50;14.70;;;;;;;9.06;44.67;102291.38;106295;1273;25284;-57
2024/03/08 05:56:42;;;;;;;22.40;14.90;;;;;;;9.08;44.79;102295.54;105593;1268;1003805;-58
2024/03/08 05:59:09;;;;;;;18.80;14.70;;;;;;;9.12;45.05;102300.08;106416;1266;25424;-57
2024/03/08 06:01:36;;;;;;;21.50;14.90;;;;;;;9.16;44.97;102302.36;106399;1267;25357;-56
2024/03/08 06:04:04;;;;;;;23.30;15.00;;;;;;;9.18;44.90;102303.42;106443;1263;25593;-57
2024/03/08 06:06:31;;;;;;;21.80;14.80;;;;;;;9.21;44.69;102303.09;106390;1274;22637;-56
2024/03/08 06:08:59;;;;;;;21.10;15.80;;;;;;;9.21;44.68;102303.27;106460;1282;25474;-57
2024/03/08 06:11:31;;;;;;;18.60;14.70;;;;;;;9.21;44.50;102308.48;106657;1266;25360;-57
2024/03/08 06:14:02;;;;;;;22.60;15.80;;;;;;;9.22;44.42;102308.14;107106;1274;24214;-57
2024/03/08 06:16:29;;;;;;;23.30;16.90;;;;;;;9.20;44.50;102303.10;106202;1274;1003380;-57
2024/03/08 06:18:57;;;;;;;20.40;15.40;;;;;;;9.19;44.46;102304.98;106932;1261;25445;-57
2024/03/08 06:21:26;;;;;;;20.30;15.10;;;;;;;9.20;44.69;102306.56;106929;1267;22523;-57
2024/03/08 06:23:59;;;;;;;23.90;15.10;;;;;;;9.23;44.73;102309.01;106811;1267;25315;-57
2024/03/08 06:26:30;;;;;;;23.30;14.80;;;;;;;9.26;44.46;102318.58;107076;1266;25324;-57
2024/03/08 06:28:58;;;;;;;22.50;15.60;;;;;;;9.29;44.26;102324.48;106922;1254;24202;-58
2024/03/08 06:31:26;;;;;;;22.00;15.00;;;;;;;9.30;44.23;102320.33;107072;1266;25460;-57
2024/03/08 06:33:54;;;;;;;21.40;15.10;;;;;;;9.30;43.79;102313.21;106318;1254;1003594;-57
2024/03/08 06:36:21;;;;;;;19.80;14.90;;;;;;;9.28;43.81;102312.70;106081;1268;1003253;-57
2024/03/08 06:38:49;;;;;;;24.80;16.30;;;;;;;9.28;43.93;102310.78;107086;1257;25440;-57
2024/03/08 06:41:16;;;;;;;22.00;16.90;;;;;;;9.27;44.19;102315.46;106871;1263;25279;-57
2024/03/08 06:43:44;;;;;;;21.20;16.20;;;;;;;9.26;44.16;102317.01;107152;1266;23291;-57
2024/03/08 06:46:12;;;;;;;21.40;15.70;;;;;;;9.26;43.93;102311.64;107107;1257;22541;-56
2024/03/08 06:48:39;;;;;;;19.10;15.60;;;;;;;9.28;44.11;102307.67;106857;1260;25406;-56
2024/03/08 06:51:07;;;;;;;21.10;16.00;;;;;;;9.31;43.97;102311.52;107031;1270;25337;-56
2024/03/08 06:53:38;;;;;;;19.90;16.00;;;;;;;9.35;44.11;102314.48;106348;1254;1002826;-57
2024/03/08 06:56:05;;;;;;;20.30;15.20;;;;;;;9.39;43.98;102315.02;106766;1264;24672;-57
2024/03/08 06:58:32;;;;;;;23.40;16.70;;;;;;;9.41;43.67;102313.30;106841;1260;25781;-57
2024/03/08 07:01:00;;;;;;;24.10;16.90;;;;;;;9.42;43.61;102309.51;106797;1261;25334;-57
2024/03/08 07:03:29;;;;;;;24.20;17.10;;;;;;;9.45;43.42;102309.35;106430;1267;25385;-57
2024/03/08 07:05:58;;;;;;;25.70;16.00;;;;;;;9.50;43.40;102310.95;107030;1267;22535;-57
2024/03/08 07:08:26;;;;;;;21.60;15.80;;;;;;;9.52;42.95;102317.05;107152;1260;22647;-56
2024/03/08 07:10:58;;;;;;;19.80;15.80;;;;;;;9.54;43.02;102314.45;107043;1274;22532;-57
2024/03/08 07:13:25;;;;;;;20.00;14.50;;;;;;;9.60;42.97;102314.84;106352;1267;1002875;-58
2024/03/08 07:15:52;;;;;;;19.70;14.40;;;;;;;9.66;42.83;102317.49;106870;1257;25474;-57
2024/03/08 07:18:19;;;;;;;20.80;14.70;;;;;;;9.70;42.49;102314.92;107084;1267;25318;-59
2024/03/08 07:20:46;;;;;;;20.60;14.90;;;;;;;9.73;42.08;102312.16;106962;1257;23883;-57
2024/03/08 07:23:46;;;;;;;19.40;13.70;;;;;;;9.76;42.27;102314.78;106473;1258;25366;-58
2024/03/08 07:26:01;;;;;;;18.40;13.50;;;;;;;9.82;42.05;102314.13;106836;1267;25318;-56
2024/03/08 07:28:30;;;;;;;19.20;14.20;;;;;;;9.86;41.85;102319.00;106949;1270;25363;-58
2024/03/08 07:32:12;;;;;;;23.40;14.20;;;;;;;9.91;41.88;102320.59;107036;1274;22777;-58
2024/03/08 07:33:56;;;;;;;20.20;15.40;;;;;;;9.93;41.83;102321.64;106983;1274;22552;-57
2024/03/08 07:36:23;;;;;;;21.60;14.30;;;;;;;9.92;41.75;102319.90;106346;1267;1002662;-58
2024/03/08 07:38:50;;;;;;;17.20;14.20;;;;;;;9.90;41.77;102320.59;106765;1273;25388;-59
2024/03/08 07:41:17;;;;;;;21.60;14.50;;;;;;;9.91;41.89;102321.98;107012;1270;25821;-58
2024/03/08 07:43:44;;;;;;;19.00;14.00;;;;;;;9.92;41.89;102324.41;107083;1267;25318;-58
2024/03/08 07:46:13;;;;;;;20.00;15.00;;;;;;;9.94;41.67;102323.89;107048;1274;25385;-57
2024/03/08 07:48:40;;;;;;;20.90;15.00;;;;;;;9.94;41.49;102321.30;107108;1267;25369;-57
2024/03/08 07:51:09;;;;;;;18.50;13.90;;;;;;;9.93;41.59;102322.50;106177;1270;1003061;-58
2024/03/08 07:53:36;;;;;;;22.30;14.00;;;;;;;9.93;41.63;102320.95;106804;1270;25465;-57
2024/03/08 07:56:05;;;;;;;17.60;14.30;;;;;;;9.94;41.89;102321.30;106935;1271;25331;-58
2024/03/08 07:58:32;;;;;;;18.40;14.50;;;;;;;9.97;41.57;102319.41;106155;1273;1002934;-56
2024/03/08 08:01:01;;;;;;;21.20;13.90;;;;;;;10.00;41.66;102314.39;107132;1269;23892;-55
2024/03/08 08:03:29;;;;;;;19.00;14.50;;;;;;;10.01;41.22;102313.02;106748;1257;25398;-56
2024/03/08 08:05:56;;;;;;;19.20;14.70;;;;;;;9.99;41.29;102311.63;106311;1267;1003169;-57
2024/03/08 08:08:23;;;;;;;19.50;14.50;;;;;;;9.95;41.15;102307.95;107136;1267;23218;-58
2024/03/08 08:10:50;;;;;;;23.70;15.80;;;;;;;9.93;41.33;102306.73;107096;1270;25440;-57
2024/03/08 08:13:17;;;;;;;27.30;18.10;;;;;;;9.93;41.33;102307.25;107162;1267;25321;-57
2024/03/08 08:15:45;;;;;;;19.30;14.40;;;;;;;9.93;41.62;102309.85;107051;1266;25322;-57
2024/03/08 08:18:14;;;;;;;19.40;14.30;;;;;;;9.93;41.95;102311.06;107141;1267;25401;-57
2024/03/08 08:20:41;;;;;;;19.50;15.10;;;;;;;9.96;41.75;102313.16;107148;1267;25324;-57
2024/03/08 08:23:11;;;;;;;20.70;15.00;;;;;;;9.99;41.79;102314.56;107095;1266;25453;-57
2024/03/08 08:25:40;;;;;;;21.30;14.10;;;;;;;10.03;41.87;102310.44;106943;1267;22733;-56
2024/03/08 08:28:08;;;;;;;19.20;14.50;;;;;;;10.08;41.51;102312.00;106216;1272;1003069;-57
2024/03/08 08:30:35;;;;;;;20.10;15.00;;;;;;;10.09;41.67;102308.73;106959;1270;25334;-56
2024/03/08 08:33:05;;;;;;;18.40;12.90;;;;;;;10.11;41.75;102308.58;106610;1271;25392;-57
2024/03/08 08:35:32;;;;;;;17.90;14.20;;;;;;;10.20;41.75;102314.70;106861;1267;25397;-56
2024/03/08 08:37:59;;;;;;;17.90;13.10;;;;;;;10.25;41.78;102315.42;106598;1267;25340;-56
2024/03/08 08:40:27;;;;;;;19.80;14.70;;;;;;;10.30;41.64;102311.45;106099;1267;1003374;-56
2024/03/08 08:42:59;;;;;;;22.30;15.60;;;;;;;10.34;41.14;102314.95;107061;1266;25401;-57
2024/03/08 08:45:27;;;;;;;22.20;15.30;;;;;;;10.32;40.94;102310.42;107174;1266;25383;-57
2024/03/08 08:47:54;;;;;;;18.90;14.00;;;;;;;10.29;41.08;102310.23;106367;1267;1002959;-57
2024/03/08 08:50:25;;;;;;;18.30;13.90;;;;;;;10.26;41.02;102312.98;106828;1267;25305;-57
2024/03/08 08:52:52;;;;;;;19.70;14.80;;;;;;;10.24;40.97;102307.27;106874;1266;22531;-57
2024/03/08 08:55:25;;;;;;;21.40;14.30;;;;;;;10.24;40.97;102304.84;106415;1267;1002489;-57
2024/03/08 08:57:53;;;;;;;18.20;14.00;;;;;;;10.23;41.07;102306.21;107099;1267;22549;-58
2024/03/08 09:00:20;;;;;;;19.70;13.00;;;;;;;10.23;41.05;102301.71;107071;1270;22637;-57
2024/03/08 09:02:51;;;;;;;19.00;13.80;;;;;;;10.26;41.24;102305.89;106901;1267;25340;-57
2024/03/08 09:05:18;;;;;;;16.80;13.00;;;;;;;10.31;41.17;102304.69;107232;1266;25328;-57
2024/03/08 09:08:03;;;;;;;17.90;13.60;;;;;;;10.37;40.99;102301.08;107083;1267;25330;-57
2024/03/08 09:10:31;;;;;;;16.90;12.80;;;;;;;10.41;40.90;102302.30;107081;1267;22546;-57
2024/03/08 09:12:59;;;;;;;17.00;13.20;;;;;;;10.44;40.90;102302.83;106861;1263;24089;-57
2024/03/08 09:15:28;;;;;;;17.50;13.00;;;;;;;10.46;40.69;102298.67;107082;1270;22538;-57
2024/03/08 09:17:55;;;;;;;18.60;13.20;;;;;;;10.47;40.66;102294.34;106873;1269;25395;-57
2024/03/08 09:20:22;;;;;;;19.30;13.50;;;;;;;10.50;40.61;102294.69;106785;1272;25331;-57
2024/03/08 09:22:49;;;;;;;19.50;13.00;;;;;;;10.50;40.38;102299.37;107146;1267;25350;-57
2024/03/08 09:25:17;;;;;;;18.10;13.90;;;;;;;10.48;40.44;102299.20;106349;1270;1015748;-58
2024/03/08 09:27:46;;;;;;;15.80;12.60;;;;;;;10.52;40.69;102298.88;107090;1266;22644;-57
2024/03/08 09:30:15;;;;;;;17.80;13.30;;;;;;;10.56;40.84;102300.79;106291;1267;1002870;-58
2024/03/08 09:32:43;;;;;;;17.70;12.90;;;;;;;10.61;40.53;102302.19;107151;1267;22552;-57
2024/03/08 09:35:10;;;;;;;19.10;13.20;;;;;;;10.63;40.36;102297.86;107087;1268;24426;-57
2024/03/08 09:37:38;;;;;;;18.90;14.30;;;;;;;10.64;40.07;102301.50;107131;1267;23344;-58
2024/03/08 09:40:09;;;;;;;17.40;13.10;;;;;;;10.64;40.05;102302.38;107116;1270;23994;-57
2024/03/08 09:42:39;;;;;;;17.40;13.10;;;;;;;10.64;39.86;102300.46;107039;1266;22535;-57
2024/03/08 09:45:15;;;;;;;17.90;13.20;;;;;;;10.65;39.81;102298.05;107111;1267;25376;-57
2024/03/08 09:47:43;;;;;;;18.00;12.80;;;;;;;10.63;40.13;102296.64;107156;1267;25438;-57
2024/03/08 09:50:12;;;;;;;20.40;12.90;;;;;;;10.64;40.21;102291.09;107128;1267;25426;-57
2024/03/08 09:52:39;;;;;;;19.70;13.40;;;;;;;10.63;40.22;102289.19;106895;1266;22952;-58
2024/03/08 09:55:08;;;;;;;17.20;13.30;;;;;;;10.63;40.04;102288.84;107057;1271;25488;-57
2024/03/08 09:57:36;;;;;;;18.40;12.50;;;;;;;10.61;39.80;102283.62;107089;1267;22657;-58
2024/03/08 10:00:27;;;;;;;16.10;12.40;;;;;;;10.59;40.03;102282.06;107132;1264;25354;-57
2024/03/08 10:02:54;;;;;;;17.00;12.70;;;;;;;10.59;39.73;102280.33;106966;1270;25343;-57
2024/03/08 10:05:22;;;;;;;20.90;15.70;;;;;;;10.60;39.77;102278.59;106087;1267;1002951;-56
2024/03/08 10:07:50;;;;;;;24.50;16.40;;;;;;;10.62;39.73;102277.90;107153;1266;25329;-57
2024/03/08 10:10:17;;;;;;;17.80;12.90;;;;;;;10.67;39.29;102277.04;106361;1267;1003814;-58
2024/03/08 10:12:45;;;;;;;16.30;12.10;;;;;;;10.66;39.22;102273.92;107063;1267;22685;-58
2024/03/08 10:15:12;;;;;;;16.70;12.50;;;;;;;10.60;39.30;102269.22;106315;1267;1003079;-57
2024/03/08 10:17:39;;;;;;;16.20;12.70;;;;;;;10.58;39.60;102266.61;107006;1267;25341;-57
2024/03/08 10:20:17;;;;;;;14.20;11.40;;;;;;;10.60;39.51;102269.75;106772;1267;25421;-58
2024/03/08 10:22:44;;;;;;;15.60;11.90;;;;;;;10.64;39.38;102269.58;106177;1267;1003592;-57
2024/03/08 10:25:24;;;;;;;17.50;12.40;;;;;;;10.67;38.88;102271.15;106804;1273;25429;-59
2024/03/08 10:27:51;;;;;;;16.00;12.70;;;;;;;10.65;38.70;102267.84;106679;1267;25478;-57
2024/03/08 10:30:20;;;;;;;16.70;12.00;;;;;;;10.63;38.95;102265.76;106789;1270;25511;-57
2024/03/08 10:32:47;;;;;;;16.10;12.90;;;;;;;10.62;38.63;102265.75;106739;1270;25421;-57
2024/03/08 10:35:16;;;;;;;15.50;12.10;;;;;;;10.63;38.85;102263.67;106751;1267;25500;-57
2024/03/08 10:37:48;;;;;;;15.30;12.50;;;;;;;10.66;38.80;102255.00;106809;1267;25441;-58
2024/03/08 10:40:19;;;;;;;17.50;13.10;;;;;;;10.70;39.07;102254.14;106738;1274;24244;-57
2024/03/08 10:42:54;;;;;;;16.30;13.30;;;;;;;10.73;39.23;102253.10;106537;1267;25526;-58
2024/03/08 10:45:30;;;;;;;15.80;12.00;;;;;;;10.76;39.08;102255.54;107029;1267;22625;-57
2024/03/08 10:48:35;;;;;;;17.60;12.00;;;;;;;10.80;39.20;102257.45;107051;1267;25438;-58
2024/03/08 10:51:07;;;;;;;15.60;11.20;;;;;;;10.88;38.45;102253.98;105876;1273;1004866;-58
2024/03/08 10:53:36;;;;;;;14.50;12.00;;;;;;;10.94;38.64;102255.38;106618;1275;25377;-57
2024/03/08 10:56:04;;;;;;;14.60;12.10;;;;;;;10.98;38.90;102258.52;106631;1273;22553;-57
2024/03/08 10:58:31;;;;;;;17.10;12.00;;;;;;;11.02;38.86;102254.52;106672;1274;23859;-57
2024/03/08 11:00:59;;;;;;;15.90;11.40;;;;;;;11.08;38.22;102251.91;105934;1273;1002922;-57
2024/03/08 11:03:42;;;;;;;15.80;11.70;;;;;;;11.13;38.02;102250.70;106644;1273;23864;-57
2024/03/08 11:06:16;;;;;;;14.60;10.70;;;;;;;11.16;37.91;102246.34;106605;1273;22761;-58
2024/03/08 11:08:44;;;;;;;13.30;10.50;;;;;;;11.21;37.91;102239.92;106663;1273;25335;-58
2024/03/08 11:11:32;;;;;;;15.10;12.00;;;;;;;11.26;38.08;102240.10;106666;1275;24050;-57